createdAt,value
2022-09-12T00:00:23.336Z,100
2022-09-12T00:01:26.620Z,100
2022-09-12T00:02:25.123Z,100
2022-09-12T00:03:24.594Z,100
2022-09-12T00:04:25.409Z,100
2022-09-12T00:05:26.550Z,100
2022-09-12T00:06:34.532Z,100
2022-09-12T00:07:26.960Z,100
2022-09-12T00:08:27.496Z,100
2022-09-12T00:09:28.090Z,100
2022-09-12T00:10:28.320Z,100
2022-09-12T00:11:29.259Z,100
2022-09-12T00:12:28.830Z,100
2022-09-12T00:13:29.455Z,100
2022-09-12T00:14:30.281Z,100
2022-09-12T00:15:30.206Z,100
2022-09-12T00:16:32.690Z,100
2022-09-12T00:17:30.933Z,100
2022-09-12T00:18:32.262Z,100
2022-09-12T00:19:31.736Z,100
2022-09-12T00:20:32.265Z,100
2022-09-12T00:21:36.999Z,100
2022-09-12T00:22:35.170Z,100
2022-09-12T00:23:34.756Z,100
2022-09-12T00:24:35.268Z,100
2022-09-12T00:25:40.712Z,100
2022-09-12T00:26:38.161Z,100
2022-09-12T00:27:38.581Z,100
2022-09-12T00:28:40.983Z,100
2022-09-12T00:29:39.597Z,100
2022-09-12T00:30:43.508Z,100
2022-09-12T00:31:41.014Z,100
2022-09-12T00:32:41.261Z,100
2022-09-12T00:33:41.884Z,100
2022-09-12T00:34:42.098Z,100
2022-09-12T00:35:47.319Z,100
2022-09-12T00:36:44.779Z,100
2022-09-12T00:37:45.088Z,100
2022-09-12T00:38:46.574Z,100
2022-09-12T00:39:46.164Z,100
2022-09-12T00:40:46.132Z,100
2022-09-12T00:41:46.648Z,100
2022-09-12T00:42:46.969Z,100
2022-09-12T00:43:52.903Z,100
2022-09-12T00:44:52.699Z,100
2022-09-12T00:45:50.792Z,100
2022-09-12T00:47:54.159Z,100
2022-09-12T00:51:02.167Z,100
2022-09-12T00:53:08.745Z,100
2022-09-12T00:54:10.795Z,100
2022-09-12T00:56:15.628Z,100
2022-09-12T00:57:15.831Z,100
2022-09-12T00:59:25.469Z,100
2022-09-12T01:00:21.588Z,100
2022-09-12T01:01:19.642Z,100
2022-09-12T01:02:19.782Z,100
2022-09-12T01:03:23.235Z,100
2022-09-12T01:04:23.660Z,100
2022-09-12T01:05:23.551Z,100
2022-09-12T01:07:22.408Z,100
2022-09-12T01:08:24.911Z,100
2022-09-12T01:09:24.199Z,100
2022-09-12T01:10:24.319Z,100
2022-09-12T01:11:24.206Z,100
2022-09-12T01:12:24.731Z,100
2022-09-12T01:13:24.838Z,100
2022-09-12T01:14:25.260Z,100
2022-09-12T01:15:25.788Z,100
2022-09-12T01:16:26.078Z,100
2022-09-12T01:50:54.566Z,100
2022-09-12T01:51:52.648Z,100
2022-09-12T01:54:00.329Z,100
2022-09-12T01:55:58.370Z,100
2022-09-12T01:56:55.309Z,100
2022-09-12T02:00:05.280Z,100
2022-09-12T02:02:13.589Z,100
2022-09-12T02:03:15.661Z,100
2022-09-12T02:09:23.745Z,100
2022-09-12T02:10:29.176Z,100
2022-09-12T02:11:24.801Z,100
2022-09-12T02:17:44.692Z,100
2022-09-12T02:20:53.849Z,100
2022-09-12T02:22:57.850Z,100
2022-09-12T02:23:59.714Z,100
2022-09-12T02:25:00.743Z,100
2022-09-12T02:26:06.331Z,100
2022-09-12T02:28:09.051Z,100
2022-09-12T02:29:03.399Z,100
2022-09-12T02:30:02.218Z,100
2022-09-12T02:39:26.429Z,100
2022-09-12T02:40:26.739Z,100
2022-09-12T02:41:27.159Z,100
2022-09-12T02:42:27.268Z,100
2022-09-12T02:43:27.779Z,100
2022-09-12T02:44:30.250Z,100
2022-09-12T02:45:29.060Z,100
2022-09-12T02:47:38.873Z,100
2022-09-12T02:48:41.543Z,100
2022-09-12T02:49:39.808Z,100
2022-09-12T02:50:40.839Z,100
2022-09-12T02:51:41.212Z,100
2022-09-12T02:52:41.358Z,100
2022-09-12T02:53:41.997Z,100
2022-09-12T02:54:42.596Z,100
2022-09-12T02:55:42.919Z,100
2022-09-12T02:56:44.770Z,100
2022-09-12T02:57:42.328Z,100
2022-09-12T02:58:43.150Z,100
2022-09-12T02:59:43.531Z,100
2022-09-12T03:00:56.793Z,100
2022-09-12T03:28:05.250Z,100
2022-09-12T03:28:58.190Z,100
2022-09-12T03:29:59.218Z,100
2022-09-12T03:30:58.670Z,100
2022-09-12T03:31:59.641Z,100
2022-09-12T03:32:59.350Z,100
2022-09-12T03:34:00.271Z,100
2022-09-12T03:35:00.182Z,100
2022-09-12T03:36:00.505Z,100
2022-09-12T03:37:01.001Z,100
2022-09-12T03:38:01.339Z,100
2022-09-12T03:39:01.841Z,100
2022-09-12T03:40:03.196Z,100
2022-09-12T03:41:02.562Z,100
2022-09-12T03:42:03.186Z,100
2022-09-12T03:43:07.709Z,100
2022-09-12T03:44:05.350Z,100
2022-09-12T03:45:06.999Z,100
2022-09-12T03:46:06.571Z,100
2022-09-12T03:47:11.008Z,100
2022-09-12T03:48:09.900Z,100
2022-09-12T03:49:09.267Z,100
2022-09-12T03:50:10.098Z,100
2022-09-12T03:51:11.250Z,100
2022-09-12T03:52:10.344Z,100
2022-09-12T03:53:14.085Z,100
2022-09-12T03:54:14.529Z,100
2022-09-12T03:55:15.060Z,100
2022-09-12T03:56:15.204Z,100
2022-09-12T03:57:15.999Z,100
2022-09-12T03:58:16.193Z,100
2022-09-12T03:59:16.518Z,100
2022-09-12T04:00:19.893Z,100
2022-09-12T04:01:19.303Z,100
2022-09-12T04:02:18.016Z,100
2022-09-12T04:03:18.273Z,100
2022-09-12T04:04:18.596Z,100
2022-09-12T04:05:19.203Z,100
2022-09-12T04:06:21.975Z,100
2022-09-12T04:07:20.223Z,100
2022-09-12T04:08:20.381Z,100
2022-09-12T04:09:20.538Z,100
2022-09-12T04:10:20.983Z,100
2022-09-12T04:11:22.844Z,100
2022-09-12T04:12:22.132Z,100
2022-09-12T04:13:22.333Z,100
2022-09-12T04:14:22.961Z,100
2022-09-12T04:15:23.047Z,100
2022-09-12T04:16:23.507Z,100
2022-09-12T04:17:23.783Z,100
2022-09-12T04:18:24.410Z,100
2022-09-12T04:19:26.166Z,100
2022-09-12T04:20:25.149Z,100
2022-09-12T04:21:25.570Z,100
2022-09-12T04:22:25.773Z,100
2022-09-12T04:23:26.186Z,100
2022-09-12T04:24:26.565Z,100
2022-09-12T04:25:27.228Z,100
2022-09-12T04:26:27.740Z,100
2022-09-12T04:27:28.571Z,100
2022-09-12T04:28:29.619Z,100
2022-09-12T04:29:28.783Z,100
2022-09-12T04:30:29.152Z,100
2022-09-12T04:31:29.815Z,100
2022-09-12T04:32:31.165Z,100
2022-09-12T04:33:30.652Z,100
2022-09-12T04:34:31.732Z,100
2022-09-12T04:35:31.075Z,100
2022-09-12T04:36:31.779Z,100
2022-09-12T04:37:31.913Z,100
2022-09-12T04:38:32.630Z,100
2022-09-12T04:39:32.739Z,100
2022-09-12T04:40:33.676Z,100
2022-09-12T04:41:36.231Z,100
2022-09-12T04:42:33.788Z,100
2022-09-12T04:43:34.303Z,100
2022-09-12T04:44:34.719Z,100
2022-09-12T04:45:35.354Z,100
2022-09-12T04:46:38.122Z,100
2022-09-12T04:47:35.970Z,100
2022-09-12T04:48:36.491Z,100
2022-09-12T04:49:36.696Z,100
2022-09-12T04:50:37.112Z,100
2022-09-12T04:51:39.681Z,100
2022-09-12T04:52:37.945Z,100
2022-09-12T04:53:38.532Z,100
2022-09-12T04:54:38.733Z,100
2022-09-12T04:55:39.092Z,100
2022-09-12T04:56:42.169Z,100
2022-09-12T04:57:40.028Z,100
2022-09-12T04:58:40.347Z,100
2022-09-12T04:59:41.063Z,100
2022-09-12T05:00:41.181Z,100
2022-09-12T05:01:42.107Z,100
2022-09-12T05:02:42.418Z,100
2022-09-12T05:03:43.968Z,100
2022-09-12T05:04:42.635Z,100
2022-09-12T05:05:43.255Z,100
2022-09-12T05:06:43.576Z,100
2022-09-12T05:07:43.986Z,100
2022-09-12T05:08:44.477Z,100
2022-09-12T05:09:44.815Z,100
2022-09-12T05:10:45.132Z,100
2022-09-12T05:12:48.215Z,100
2022-09-12T05:13:48.631Z,100
2022-09-12T05:14:49.058Z,100
2022-09-12T05:16:53.115Z,100
2022-09-12T05:17:53.374Z,100
2022-09-12T05:18:53.987Z,100
2022-09-12T05:19:54.099Z,100
2022-09-12T05:20:55.228Z,100
2022-09-12T05:21:54.933Z,100
2022-09-12T05:22:55.360Z,100
2022-09-12T05:23:57.809Z,100
2022-09-12T05:24:56.085Z,100
2022-09-12T05:25:59.263Z,100
2022-09-12T05:26:56.915Z,100
2022-09-12T05:27:57.332Z,100
2022-09-12T05:28:57.757Z,100
2022-09-12T05:29:58.065Z,100
2022-09-12T05:32:04.316Z,100
2022-09-12T05:33:04.117Z,100
2022-09-12T05:34:04.430Z,100
2022-09-12T05:35:05.171Z,100
2022-09-12T05:36:07.824Z,100
2022-09-12T05:37:05.289Z,100
2022-09-12T05:38:05.957Z,100
2022-09-12T05:39:06.202Z,100
2022-09-12T05:40:07.998Z,100
2022-09-12T05:41:14.665Z,100
2022-09-12T05:42:09.351Z,100
2022-09-12T05:43:10.105Z,100
2022-09-12T05:44:14.541Z,100
2022-09-12T05:45:11.996Z,100
2022-09-12T05:46:15.791Z,100
2022-09-12T05:47:13.222Z,100
2022-09-12T05:48:13.608Z,100
2022-09-12T05:49:14.374Z,100
2022-09-12T05:50:14.779Z,100
2022-09-12T05:51:17.896Z,100
2022-09-12T05:52:15.271Z,100
2022-09-12T05:53:15.623Z,100
2022-09-12T05:54:19.332Z,100
2022-09-12T05:55:16.971Z,100
2022-09-12T05:56:22.300Z,100
2022-09-12T05:57:19.849Z,100
2022-09-12T05:58:20.156Z,100
2022-09-12T05:59:21.911Z,100
2022-09-12T06:00:21.191Z,100
2022-09-12T06:01:21.339Z,100
2022-09-12T06:02:22.053Z,100
2022-09-12T06:03:22.299Z,100
2022-09-12T06:04:22.640Z,100
2022-09-12T06:05:22.878Z,100
2022-09-12T06:06:25.147Z,100
2022-09-12T06:07:24.103Z,100
2022-09-12T06:08:24.227Z,100
2022-09-12T06:09:24.527Z,100
2022-09-12T06:10:26.306Z,100
2022-09-12T06:11:28.226Z,100
2022-09-12T06:12:25.942Z,100
2022-09-12T06:13:26.208Z,100
2022-09-12T06:14:26.512Z,100
2022-09-12T06:15:26.936Z,100
2022-09-12T06:16:29.875Z,100
2022-09-12T06:17:27.857Z,100
2022-09-12T06:18:28.376Z,100
2022-09-12T06:19:28.708Z,100
2022-09-12T06:20:29.012Z,100
2022-09-12T06:21:30.153Z,100
2022-09-12T06:22:29.844Z,100
2022-09-12T06:23:30.460Z,100
2022-09-12T06:24:30.668Z,99.81
2022-09-12T06:25:31.081Z,99.78
2022-09-12T06:26:31.679Z,100
2022-09-12T06:27:31.818Z,100
2022-09-12T06:28:34.644Z,99.92
2022-09-12T06:29:32.677Z,100
2022-09-12T06:30:33.241Z,100
2022-09-12T06:31:36.777Z,100
2022-09-12T06:32:34.172Z,99.96
2022-09-12T06:33:36.977Z,100
2022-09-12T06:34:35.135Z,100
2022-09-12T06:35:38.992Z,100
2022-09-12T06:36:41.823Z,100
2022-09-12T06:37:39.258Z,100
2022-09-12T06:38:40.899Z,99.27
2022-09-12T06:39:40.099Z,98.67
2022-09-12T06:40:44.288Z,99.07
2022-09-12T06:41:44.095Z,99.48
2022-09-12T06:42:42.158Z,99.51
2022-09-12T06:43:43.387Z,99.25
2022-09-12T06:44:42.898Z,99.26
2022-09-12T06:45:49.589Z,99.05
2022-09-12T06:46:47.918Z,98.93
2022-09-12T06:47:47.732Z,98.79
2022-09-12T06:48:48.413Z,98.66
2022-09-12T06:49:48.249Z,98.03
2022-09-12T06:51:52.358Z,98.54
2022-09-12T06:52:52.671Z,98.48
2022-09-12T06:53:55.646Z,98.38
2022-09-12T06:54:53.300Z,97.81
2022-09-12T06:56:02.204Z,97.64
2022-09-12T06:56:54.648Z,97.35
2022-09-12T06:57:55.061Z,97.84
2022-09-12T06:58:59.769Z,97.75
2022-09-12T06:59:57.322Z,97.9
2022-09-12T07:01:58.347Z,97.88
2022-09-12T07:02:58.682Z,97.66
2022-09-12T07:04:01.185Z,97.78
2022-09-12T07:04:59.402Z,97.52
2022-09-12T07:07:02.889Z,96.91
2022-09-12T07:08:03.411Z,96.84
2022-09-12T07:09:05.573Z,97.21
2022-09-12T07:10:04.560Z,97.26
2022-09-12T07:12:08.119Z,96.4
2022-09-12T07:13:08.279Z,96.45
2022-09-12T07:14:11.256Z,96.51
2022-09-12T07:15:10.433Z,96.13
2022-09-12T07:16:10.035Z,96.21
2022-09-12T07:17:09.871Z,96.14
2022-09-12T07:18:11.162Z,95.82
2022-09-12T07:19:10.868Z,95.72
2022-09-12T07:20:11.181Z,95.61
2022-09-12T07:21:13.543Z,95.37
2022-09-12T07:22:11.767Z,95.1
2022-09-12T07:23:12.315Z,94.49
2022-09-12T07:24:12.638Z,94.36
2022-09-12T07:25:13.057Z,94.35
2022-09-12T07:26:14.798Z,94.61
2022-09-12T07:27:13.990Z,94.56
2022-09-12T07:28:14.500Z,94.47
2022-09-12T07:30:22.640Z,95.12
2022-09-12T07:31:21.801Z,94.85
2022-09-12T07:32:20.670Z,94.76
2022-09-12T07:34:24.478Z,94.18
2022-09-12T07:35:24.690Z,94.11
2022-09-12T07:36:25.523Z,94.82
2022-09-12T07:37:25.618Z,93.97
2022-09-12T07:38:25.949Z,93.62
2022-09-12T07:39:26.576Z,93.12
2022-09-12T07:40:26.762Z,93.46
2022-09-12T07:41:29.848Z,93.49
2022-09-12T07:42:27.596Z,93.75
2022-09-12T07:43:28.227Z,92.81
2022-09-12T07:44:28.948Z,92.44
2022-09-12T07:45:28.753Z,92.31
2022-09-12T07:46:31.244Z,92.1
2022-09-12T07:47:29.681Z,92.39
2022-09-12T07:48:30.099Z,92.74
2022-09-12T07:49:30.627Z,93.01
2022-09-12T07:50:32.362Z,93.21
2022-09-12T07:51:31.761Z,93.42
2022-09-12T07:52:31.862Z,94.24
2022-09-12T07:53:35.261Z,93.39
2022-09-12T07:54:32.796Z,93.6
2022-09-12T07:55:33.438Z,93.28
2022-09-12T07:56:38.206Z,93.89
2022-09-12T07:57:36.428Z,94.59
2022-09-12T07:58:38.159Z,94.49
2022-09-12T07:59:52.143Z,94.86
2022-09-12T08:00:40.206Z,94.68
2022-09-12T08:01:41.039Z,94.55
2022-09-12T08:02:41.216Z,94.17
2022-09-12T08:03:45.456Z,94.25
2022-09-12T08:04:43.008Z,93.8
2022-09-12T08:05:43.525Z,94.16
2022-09-12T08:06:43.707Z,94.38
2022-09-12T08:07:44.464Z,94.67
2022-09-12T08:08:44.669Z,94.37
2022-09-12T08:09:45.288Z,94.29
2022-09-12T08:10:45.494Z,94.5
2022-09-12T08:11:45.931Z,94.44
2022-09-12T08:12:46.240Z,94.54
2022-09-12T08:13:51.656Z,94.11
2022-09-12T08:14:47.021Z,93.89
2022-09-12T08:15:47.237Z,93.19
2022-09-12T08:16:47.590Z,92.71
2022-09-12T08:17:48.102Z,92.71
2022-09-12T08:18:49.867Z,92.73
2022-09-12T08:19:48.939Z,92.15
2022-09-12T08:20:49.263Z,91.89
2022-09-12T08:21:49.778Z,91.7
2022-09-12T08:22:50.186Z,91.81
2022-09-12T08:24:54.729Z,91.61
2022-09-12T08:26:01.369Z,92.16
2022-09-12T08:26:56.569Z,91.97
2022-09-12T08:27:56.878Z,92.11
2022-09-12T08:28:57.465Z,92.05
2022-09-12T08:29:58.061Z,92.64
2022-09-12T08:31:02.163Z,92.72
2022-09-12T08:31:59.844Z,92.98
2022-09-12T08:33:00.391Z,92.89
2022-09-12T08:34:00.717Z,92.86
2022-09-12T08:35:00.966Z,93.78
2022-09-12T08:37:01.651Z,93.17
2022-09-12T08:38:02.067Z,93.24
2022-09-12T08:39:06.072Z,93.85
2022-09-12T08:40:04.152Z,93.7
2022-09-12T08:46:24.622Z,94.26
2022-09-12T08:48:22.704Z,95.04
2022-09-12T08:50:26.620Z,94.98
2022-09-12T08:51:27.751Z,95.13
2022-09-12T08:53:29.968Z,94.25
2022-09-12T08:54:30.228Z,93.78
2022-09-12T08:57:33.568Z,93.29
2022-09-12T08:59:41.991Z,93.16
2022-09-12T09:01:45.912Z,91.86
2022-09-12T09:18:29.315Z,92.12
2022-09-12T09:23:42.520Z,90.67
2022-09-12T09:24:40.143Z,90.73
2022-09-12T09:27:52.149Z,89.6
2022-09-12T09:30:46.983Z,91.13
2022-09-12T09:31:49.820Z,91.63
2022-09-12T09:33:51.525Z,90.41
2022-09-12T09:34:49.020Z,90.48
2022-09-12T09:43:24.404Z,90.7
2022-09-12T09:44:17.668Z,89.8
2022-09-12T09:45:25.846Z,89.75
2022-09-12T09:46:18.857Z,89.86
2022-09-12T09:47:18.960Z,90.02
2022-09-12T09:48:24.757Z,89.67
2022-09-12T09:49:23.412Z,89.47
2022-09-12T09:50:23.115Z,90.69
2022-09-12T09:52:29.189Z,90.32
2022-09-12T09:55:40.980Z,89.94
2022-09-12T09:56:40.787Z,88.83
2022-09-12T09:57:41.491Z,88.76
2022-09-12T09:58:40.379Z,87.96
2022-09-12T09:59:39.665Z,87.96
2022-09-12T10:00:41.009Z,88.39
2022-09-12T10:02:41.379Z,87.14
2022-09-12T10:03:52.090Z,86.47
2022-09-12T10:04:55.839Z,86.67
2022-09-12T10:05:53.832Z,86.06
2022-09-12T10:06:53.438Z,86.38
2022-09-12T10:07:52.922Z,85.92
2022-09-12T10:09:03.801Z,85.06
2022-09-12T10:12:02.473Z,84.24
2022-09-12T10:14:00.956Z,85.75
2022-09-12T10:15:03.081Z,85.58
2022-09-12T10:16:08.079Z,85.19
2022-09-12T10:18:07.740Z,84.16
2022-09-12T10:22:23.239Z,85.36
2022-09-12T10:25:27.556Z,84.88
2022-09-12T10:26:31.132Z,85.39
2022-09-12T10:27:32.981Z,85.78
2022-09-12T10:28:38.823Z,84.98
2022-09-12T10:29:34.965Z,85.83
2022-09-12T10:30:34.335Z,85.52
2022-09-12T10:32:43.669Z,85.55
2022-09-12T10:33:47.928Z,85.94
2022-09-12T10:34:46.149Z,86.35
2022-09-12T10:35:49.677Z,86.52
2022-09-12T10:36:47.811Z,87.6
2022-09-12T10:38:57.023Z,87.69
2022-09-12T10:39:56.804Z,87.81
2022-09-12T10:41:57.656Z,86.96
2022-09-12T10:42:59.504Z,87.93
2022-09-12T10:45:02.826Z,86.85
2022-09-12T10:54:27.239Z,87.58
2022-09-12T10:56:31.160Z,86.64
2022-09-12T11:00:46.321Z,86.51
2022-09-12T11:30:08.414Z,86.58
2022-09-12T11:42:33.374Z,87.67
2022-09-12T11:44:42.600Z,87.63
2022-09-12T11:45:43.993Z,87.64
2022-09-12T11:46:39.083Z,87.31
2022-09-12T11:47:39.246Z,87.3
2022-09-12T11:50:43.360Z,86.78
2022-09-12T11:52:48.569Z,86.73
2022-09-12T11:56:08.182Z,87.13
2022-09-12T11:58:03.175Z,86.9
2022-09-12T12:04:24.009Z,87.25
2022-09-12T12:06:27.341Z,87.94
2022-09-12T12:07:24.786Z,87.77
2022-09-12T12:08:27.622Z,88.17
2022-09-12T12:09:25.875Z,88.28
2022-09-12T12:11:38.086Z,88.08
2022-09-12T12:12:30.599Z,87.95
2022-09-12T12:13:41.169Z,88.02
2022-09-12T12:14:43.208Z,88.34
2022-09-12T12:15:37.639Z,88.28
2022-09-12T12:16:39.608Z,87.88
2022-09-12T12:17:38.422Z,86.95
2022-09-12T12:18:40.197Z,86.58
2022-09-12T12:19:38.608Z,87.39
2022-09-12T12:20:39.267Z,87.23
2022-09-12T12:21:44.081Z,87.2
2022-09-12T12:22:52.599Z,86.85
2022-09-12T12:25:57.212Z,87.25
2022-09-12T12:26:58.656Z,86.74
2022-09-12T12:28:02.658Z,86.48
2022-09-12T12:29:00.818Z,86.48
2022-09-12T12:30:00.511Z,86.85
2022-09-12T12:31:02.347Z,86.92
2022-09-12T12:40:31.309Z,85.61
2022-09-12T12:43:37.361Z,85.33
2022-09-12T12:45:48.759Z,84.52
2022-09-12T12:47:51.011Z,83.76
2022-09-12T12:50:53.596Z,82.49
2022-09-12T12:51:59.125Z,82.97
2022-09-12T12:54:02.919Z,83.32
2022-09-12T12:55:03.001Z,83.96
2022-09-12T12:56:01.413Z,84.24
2022-09-12T13:01:22.492Z,84.75
2022-09-12T13:04:30.372Z,85.22
2022-09-12T13:05:30.797Z,85.25
2022-09-12T13:07:34.685Z,85.73
2022-09-12T13:08:35.725Z,86.16
2022-09-12T13:11:41.769Z,86.04
2022-09-12T13:12:47.591Z,85.93
2022-09-12T13:15:52.500Z,86.34
2022-09-12T13:17:52.018Z,86.49
2022-09-12T13:18:52.341Z,86.85
2022-09-12T13:20:24.119Z,86.9
2022-09-12T13:22:01.774Z,86.45
2022-09-12T13:22:59.239Z,86.76
2022-09-12T13:26:12.562Z,87.39
2022-09-12T13:28:17.906Z,87.12
2022-09-12T13:29:21.080Z,86.81
2022-09-12T13:30:19.259Z,86.39
2022-09-12T13:31:28.436Z,86.8
2022-09-12T13:32:21.416Z,86.76
2022-09-12T13:43:50.055Z,88.02
2022-09-12T13:45:50.164Z,88.28
2022-09-12T13:46:51.866Z,88.73
2022-09-12T13:48:54.897Z,89.84
2022-09-12T13:49:57.046Z,89.76
2022-09-12T13:50:59.108Z,89.72
2022-09-12T13:53:06.186Z,90.06
2022-09-12T13:54:02.989Z,89.78
2022-09-12T13:55:02.209Z,89.47
2022-09-12T13:56:01.236Z,89.62
2022-09-12T13:57:01.346Z,89.83
2022-09-12T13:58:07.147Z,90.04
2022-09-12T13:59:11.659Z,90.32
2022-09-12T14:00:19.547Z,89.9
2022-09-12T14:01:15.968Z,90.34
2022-09-12T14:02:21.155Z,89.62
2022-09-12T14:04:24.896Z,89.55
2022-09-12T14:05:24.179Z,89.54
2022-09-12T14:06:21.729Z,89.75
2022-09-12T14:07:24.807Z,89.52
2022-09-12T14:08:23.806Z,89.39
2022-09-12T14:09:30.007Z,89.47
2022-09-12T14:10:35.785Z,89.79
2022-09-12T14:11:30.578Z,89.8
2022-09-12T14:12:32.194Z,89.95
2022-09-12T14:13:29.964Z,88.76
2022-09-12T14:14:35.920Z,89.34
2022-09-12T14:15:37.292Z,88.91
2022-09-12T14:16:40.125Z,88.84
2022-09-12T14:17:39.128Z,88.82
2022-09-12T14:18:39.634Z,89.15
2022-09-12T14:19:38.705Z,88.73
2022-09-12T14:20:39.329Z,88.69
2022-09-12T14:21:39.436Z,88.78
2022-09-12T14:22:40.171Z,88.95
2022-09-12T14:23:43.858Z,88.85
2022-09-12T14:24:41.916Z,88.4
2022-09-12T14:25:43.560Z,88.02
2022-09-12T14:26:44.030Z,87.79
2022-09-12T14:27:46.746Z,87.17
2022-09-12T14:28:46.707Z,86.99
2022-09-12T14:29:46.353Z,87.16
2022-09-12T14:37:07.194Z,86.77
2022-09-12T14:38:18.764Z,87.09
2022-09-12T14:39:15.555Z,87.56
2022-09-12T14:41:12.124Z,87.55
2022-09-12T14:42:18.040Z,87.64
2022-09-12T14:48:19.445Z,88.13
2022-09-12T14:52:32.058Z,87.45
2022-09-12T14:53:37.498Z,87.59
2022-09-12T14:55:34.408Z,88.26
2022-09-12T14:57:37.596Z,87.95
2022-09-12T14:58:35.698Z,88.08
2022-09-12T14:59:40.725Z,87.77
2022-09-12T15:01:39.450Z,88.32
2022-09-12T15:02:46.163Z,88.21
2022-09-12T15:03:55.366Z,88.06
2022-09-12T15:04:51.918Z,88.34
2022-09-12T15:05:50.447Z,88.94
2022-09-12T15:06:50.077Z,89.08
2022-09-12T15:07:58.889Z,89.12
2022-09-12T15:08:53.481Z,89.46
2022-09-12T15:09:52.409Z,89.12
2022-09-12T15:10:52.462Z,89.14
2022-09-12T15:11:52.577Z,89.33
2022-09-12T15:13:57.507Z,89.88
2022-09-12T15:16:01.564Z,89.81
2022-09-12T15:17:02.951Z,90.2
2022-09-12T15:18:06.255Z,89.57
2022-09-12T15:19:04.288Z,89.63
2022-09-12T15:20:05.828Z,90.18
2022-09-12T15:21:07.800Z,90.27
2022-09-12T15:22:05.542Z,90.28
2022-09-12T15:23:10.354Z,90.18
2022-09-12T15:24:09.337Z,89.87
2022-09-12T15:25:12.311Z,90.19
2022-09-12T15:26:13.864Z,89.91
2022-09-12T15:27:14.180Z,90.12
2022-09-12T15:28:22.781Z,90.14
2022-09-12T15:29:15.311Z,90.05
2022-09-12T15:30:16.038Z,89.96
2022-09-12T15:31:24.725Z,90.17
2022-09-12T15:32:23.935Z,90.42
2022-09-12T15:33:23.633Z,90.04
2022-09-12T15:34:21.896Z,90.51
2022-09-12T15:35:24.056Z,90.21
2022-09-12T15:36:23.751Z,89.91
2022-09-12T15:37:24.684Z,89.57
2022-09-12T15:38:26.532Z,89.79
2022-09-12T15:39:24.593Z,89.69
2022-09-12T15:40:24.850Z,89.47
2022-09-12T15:41:36.277Z,89.57
2022-09-12T15:42:29.436Z,90.58
2022-09-12T15:43:32.070Z,90.87
2022-09-12T15:44:29.547Z,90.66
2022-09-12T15:45:33.442Z,90.73
2022-09-12T15:46:30.960Z,90.59
2022-09-12T15:47:31.309Z,90.1
2022-09-12T15:48:32.030Z,90.77
2022-09-12T15:49:32.340Z,89.92
2022-09-12T15:50:32.649Z,90.04
2022-09-12T15:51:33.169Z,90.69
2022-09-12T15:52:33.341Z,90.66
2022-09-12T15:53:34.004Z,91.15
2022-09-12T15:54:34.522Z,91.9
2022-09-12T15:55:34.944Z,91.62
2022-09-12T15:56:35.153Z,92.04
2022-09-12T15:57:35.560Z,91.97
2022-09-12T15:58:36.284Z,91.96
2022-09-12T15:59:36.598Z,92.04
2022-09-12T16:00:36.811Z,91.46
2022-09-12T16:01:37.591Z,91.7
2022-09-12T16:02:37.825Z,92.34
2022-09-12T16:03:38.465Z,92.28
2022-09-12T16:04:38.376Z,92.23
2022-09-12T16:05:39.008Z,92.42
2022-09-12T16:06:39.567Z,92.42
2022-09-12T16:07:39.948Z,92.1
2022-09-12T16:08:40.037Z,92
2022-09-12T16:09:40.559Z,92.46
2022-09-12T16:10:43.842Z,92.68
2022-09-12T16:11:41.697Z,92.59
2022-09-12T16:12:42.216Z,92.15
2022-09-12T16:13:42.326Z,91.88
2022-09-12T16:14:42.749Z,91.5
2022-09-12T16:15:43.085Z,91.36
2022-09-12T16:16:44.597Z,91.29
2022-09-12T16:17:43.982Z,91.37
2022-09-12T16:18:44.548Z,91.46
2022-09-12T16:19:44.697Z,91.5
2022-09-12T16:20:45.034Z,91.35
2022-09-12T16:21:45.836Z,91.74
2022-09-12T16:22:46.074Z,92.04
2022-09-12T16:23:47.695Z,92.21
2022-09-12T16:24:46.805Z,92.58
2022-09-12T16:25:59.298Z,92.8
2022-09-12T16:26:51.738Z,92.73
2022-09-12T16:27:52.049Z,92.63
2022-09-12T16:28:59.284Z,92.71
2022-09-12T16:29:56.747Z,92.64
2022-09-12T16:30:59.057Z,93.07
2022-09-12T16:31:57.552Z,93.17
2022-09-12T16:32:58.010Z,93.24
2022-09-12T16:33:58.350Z,93.44
2022-09-12T16:34:59.357Z,93.36
2022-09-12T16:36:07.869Z,93.5
2022-09-12T16:37:00.400Z,93.76
2022-09-12T16:38:01.016Z,94.41
2022-09-12T16:39:01.237Z,94.58
2022-09-12T16:40:03.407Z,94.65
2022-09-12T16:41:03.391Z,94.58
2022-09-12T16:42:02.689Z,94.73
2022-09-12T16:43:03.108Z,94.89
2022-09-12T16:44:03.367Z,94.99
2022-09-12T16:45:04.417Z,94.87
2022-09-12T16:46:13.334Z,94.79
2022-09-12T16:47:06.061Z,95.12
2022-09-12T16:48:06.303Z,94.87
2022-09-12T16:49:06.748Z,94.35
2022-09-12T16:50:08.477Z,94.64
2022-09-12T16:51:07.554Z,95.03
2022-09-12T16:52:08.180Z,95.18
2022-09-12T16:53:08.390Z,95.5
2022-09-12T16:54:08.808Z,95.71
2022-09-12T16:55:09.589Z,95.58
2022-09-12T16:56:10.048Z,95.27
2022-09-12T16:57:10.254Z,95.29
2022-09-12T16:58:10.463Z,95.55
2022-09-12T16:59:11.214Z,95.62
2022-09-12T17:00:12.224Z,95.44
2022-09-12T17:01:20.628Z,95.07
2022-09-12T17:02:14.555Z,95.3
2022-09-12T17:03:13.578Z,95.52
2022-09-12T17:04:13.887Z,95.45
2022-09-12T17:05:15.527Z,95.03
2022-09-12T17:06:18.310Z,95.54
2022-09-12T17:07:15.871Z,95.89
2022-09-12T17:08:16.288Z,96.17
2022-09-12T17:09:16.800Z,96.05
2022-09-12T17:10:17.717Z,96.19
2022-09-12T17:11:23.217Z,96.27
2022-09-12T17:12:21.010Z,96.08
2022-09-12T17:13:21.214Z,96.29
2022-09-12T17:14:21.786Z,95.95
2022-09-12T17:15:22.049Z,95.71
2022-09-12T17:16:23.405Z,95.69
2022-09-12T17:17:22.799Z,95.6
2022-09-12T17:18:23.507Z,95.72
2022-09-12T17:19:26.592Z,95.94
2022-09-12T17:20:24.135Z,96
2022-09-12T17:21:24.618Z,96.09
2022-09-12T17:22:25.070Z,96.24
2022-09-12T17:23:25.487Z,96.35
2022-09-12T17:24:26.414Z,96.55
2022-09-12T17:25:26.104Z,96.66
2022-09-12T17:26:27.249Z,96.65
2022-09-12T17:27:26.935Z,96.47
2022-09-12T17:28:27.457Z,96.63
2022-09-12T17:29:27.767Z,96.83
2022-09-12T17:30:28.182Z,96.57
2022-09-12T17:31:29.003Z,95.87
2022-09-12T17:32:29.234Z,95.35
2022-09-12T17:33:29.843Z,95.99
2022-09-12T17:34:30.360Z,96.44
2022-09-12T17:35:33.549Z,96.25
2022-09-12T17:36:31.195Z,96.28
2022-09-12T17:37:31.514Z,96.65
2022-09-12T17:38:33.358Z,96.7
2022-09-12T17:39:32.414Z,96.47
2022-09-12T17:40:58.123Z,96.39
2022-09-12T17:41:33.481Z,96.19
2022-09-12T17:42:33.899Z,96.4
2022-09-12T17:43:35.036Z,96.75
2022-09-12T17:44:34.625Z,96.63
2022-09-12T17:45:35.055Z,96.91
2022-09-12T17:46:38.113Z,96.72
2022-09-12T17:47:35.876Z,96.92
2022-09-12T17:48:36.185Z,97.06
2022-09-12T17:49:36.706Z,97.13
2022-09-12T17:50:40.907Z,97.13
2022-09-12T17:51:38.457Z,97.2
2022-09-12T17:52:38.616Z,97.54
2022-09-12T17:53:39.802Z,97.76
2022-09-12T17:54:39.500Z,97.87
2022-09-12T17:55:39.921Z,97.95
2022-09-12T17:56:41.357Z,97.73
2022-09-12T17:57:41.773Z,97.66
2022-09-12T17:58:41.272Z,97.6
2022-09-12T17:59:41.500Z,97.33
2022-09-12T18:00:41.998Z,97.26
2022-09-12T18:01:42.608Z,97.29
2022-09-12T18:02:43.486Z,97.27
2022-09-12T18:03:43.312Z,97.41
2022-09-12T18:04:45.610Z,97.4
2022-09-12T18:05:48.795Z,97.7
2022-09-12T18:06:46.647Z,97.84
2022-09-12T18:07:46.756Z,97.83
2022-09-12T18:08:47.178Z,97.42
2022-09-12T18:09:47.815Z,97.24
2022-09-12T18:10:48.209Z,97.68
2022-09-12T18:11:49.630Z,97.89
2022-09-12T18:12:49.043Z,97.99
2022-09-12T18:13:49.456Z,98.21
2022-09-12T18:14:49.673Z,98.05
2022-09-12T18:15:50.220Z,97.69
2022-09-12T18:16:51.031Z,97.75
2022-09-12T18:17:50.918Z,97.9
2022-09-12T18:18:51.433Z,98.35
2022-09-12T18:19:53.834Z,98.18
2022-09-12T18:20:52.169Z,98.23
2022-09-12T18:21:53.074Z,98.28
2022-09-12T18:22:52.998Z,98.15
2022-09-12T18:23:55.683Z,97.99
2022-09-12T18:24:53.834Z,97.99
2022-09-12T18:26:02.252Z,98
2022-09-12T18:26:55.791Z,98.17
2022-09-12T18:27:55.182Z,98.38
2022-09-12T18:28:56.574Z,98.3
2022-09-12T18:30:19.497Z,98.27
2022-09-12T18:30:58.670Z,98.33